sensor_id;sensor_type;location;lat;lon;timestamp;pressure;altitude;pressure_sealevel;temperature;humidity
57801;BME280;43627;42.728;23.256;2023-07-22T00:00:42;94929.19;;;22.77;84.10
57801;BME280;43627;42.728;23.256;2023-07-22T00:03:12;94937.94;;;22.60;85.68
57801;BME280;43627;42.728;23.256;2023-07-22T00:05:39;94940.31;;;22.56;86.21
57801;BME280;43627;42.728;23.256;2023-07-22T00:08:06;94941.06;;;22.57;86.56
57801;BME280;43627;42.728;23.256;2023-07-22T00:10:33;94944.13;;;22.66;86.30
57801;BME280;43627;42.728;23.256;2023-07-22T00:12:59;94941.47;;;22.61;86.37
57801;BME280;43627;42.728;23.256;2023-07-22T00:15:26;94934.94;;;22.79;86.20
57801;BME280;43627;42.728;23.256;2023-07-22T00:17:53;94939.50;;;22.69;85.67
57801;BME280;43627;42.728;23.256;2023-07-22T00:20:20;94939.97;;;22.60;86.34
57801;BME280;43627;42.728;23.256;2023-07-22T00:22:47;94948.59;;;22.69;85.54
57801;BME280;43627;42.728;23.256;2023-07-22T00:25:14;94950.50;;;22.74;83.79
57801;BME280;43627;42.728;23.256;2023-07-22T00:27:41;94931.16;;;22.69;85.23
57801;BME280;43627;42.728;23.256;2023-07-22T00:30:09;94931.91;;;22.69;86.15
57801;BME280;43627;42.728;23.256;2023-07-22T00:32:36;94930.81;;;22.72;85.35
57801;BME280;43627;42.728;23.256;2023-07-22T00:35:07;94934.94;;;22.79;85.43
57801;BME280;43627;42.728;23.256;2023-07-22T00:37:36;94919.84;;;22.88;84.15
57801;BME280;43627;42.728;23.256;2023-07-22T00:40:03;94931.84;;;22.41;87.17
57801;BME280;43627;42.728;23.256;2023-07-22T00:42:38;94938.06;;;22.55;87.06
57801;BME280;43627;42.728;23.256;2023-07-22T00:45:06;94939.50;;;22.48;87.72
57801;BME280;43627;42.728;23.256;2023-07-22T00:47:34;94947.81;;;22.27;90.37
57801;BME280;43627;42.728;23.256;2023-07-22T00:50:03;94954.94;;;22.36;89.00
57801;BME280;43627;42.728;23.256;2023-07-22T00:52:30;94968.72;;;22.62;88.16
57801;BME280;43627;42.728;23.256;2023-07-22T00:54:57;94959.97;;;22.79;84.47
57801;BME280;43627;42.728;23.256;2023-07-22T00:57:24;94955.63;;;22.70;85.25
57801;BME280;43627;42.728;23.256;2023-07-22T00:59:51;94945.25;;;22.71;85.24
57801;BME280;43627;42.728;23.256;2023-07-22T01:02:18;94948.03;;;22.71;86.14
57801;BME280;43627;42.728;23.256;2023-07-22T01:04:46;94943.78;;;22.70;88.03
57801;BME280;43627;42.728;23.256;2023-07-22T01:07:13;94926.28;;;22.62;88.14
57801;BME280;43627;42.728;23.256;2023-07-22T01:09:40;94932.31;;;22.52;88.15
57801;BME280;43627;42.728;23.256;2023-07-22T01:12:07;94936.19;;;22.49;90.40
57801;BME280;43627;42.728;23.256;2023-07-22T01:14:40;94926.28;;;22.41;89.80
57801;BME280;43627;42.728;23.256;2023-07-22T01:17:09;94945.09;;;22.35;90.15
57801;BME280;43627;42.728;23.256;2023-07-22T01:19:36;94929.25;;;22.22;91.14
57801;BME280;43627;42.728;23.256;2023-07-22T01:22:05;94929.38;;;22.03;94.34
57801;BME280;43627;42.728;23.256;2023-07-22T01:24:35;94923.63;;;22.01;94.61
57801;BME280;43627;42.728;23.256;2023-07-22T01:27:02;94926.66;;;21.90;95.76
57801;BME280;43627;42.728;23.256;2023-07-22T01:29:30;94921.31;;;21.92;96.78
57801;BME280;43627;42.728;23.256;2023-07-22T01:31:56;94918.41;;;21.98;96.29
57801;BME280;43627;42.728;23.256;2023-07-22T01:34:23;94920.75;;;22.07;95.62
57801;BME280;43627;42.728;23.256;2023-07-22T01:36:51;94919.09;;;22.24;94.11
57801;BME280;43627;42.728;23.256;2023-07-22T01:39:18;94924.97;;;22.21;91.52
57801;BME280;43627;42.728;23.256;2023-07-22T01:41:45;94921.56;;;22.15;92.17
57801;BME280;43627;42.728;23.256;2023-07-22T01:44:12;94908.41;;;22.29;93.13
57801;BME280;43627;42.728;23.256;2023-07-22T01:46:39;94914.53;;;22.35;92.49
57801;BME280;43627;42.728;23.256;2023-07-22T01:49:09;94919.09;;;22.24;92.32
57801;BME280;43627;42.728;23.256;2023-07-22T01:51:36;94915.72;;;22.18;93.67
57801;BME280;43627;42.728;23.256;2023-07-22T01:54:04;94910.16;;;22.05;95.16
57801;BME280;43627;42.728;23.256;2023-07-22T01:56:31;94913.59;;;21.98;95.73
57801;BME280;43627;42.728;23.256;2023-07-22T01:58:58;94899.38;;;21.67;98.22
57801;BME280;43627;42.728;23.256;2023-07-22T02:01:24;94902.81;;;21.60;100.00
57801;BME280;43627;42.728;23.256;2023-07-22T02:03:51;94915.31;;;21.54;100.00
57801;BME280;43627;42.728;23.256;2023-07-22T02:06:18;94905.41;;;21.45;100.00
57801;BME280;43627;42.728;23.256;2023-07-22T02:08:45;94906.88;;;21.20;100.00
57801;BME280;43627;42.728;23.256;2023-07-22T02:11:12;94913.59;;;21.24;100.00
57801;BME280;43627;42.728;23.256;2023-07-22T02:13:39;94904.31;;;20.95;100.00
57801;BME280;43627;42.728;23.256;2023-07-22T02:16:06;94903.75;;;20.83;100.00
57801;BME280;43627;42.728;23.256;2023-07-22T02:18:32;94913.13;;;20.94;100.00
57801;BME280;43627;42.728;23.256;2023-07-22T02:20:59;94912.22;;;21.04;100.00
57801;BME280;43627;42.728;23.256;2023-07-22T02:23:26;94921.47;;;21.07;100.00
57801;BME280;43627;42.728;23.256;2023-07-22T02:25:53;94910.50;;;21.01;100.00
57801;BME280;43627;42.728;23.256;2023-07-22T02:28:21;94918.69;;;20.94;100.00
57801;BME280;43627;42.728;23.256;2023-07-22T02:30:51;94924.03;;;20.92;100.00
57801;BME280;43627;42.728;23.256;2023-07-22T02:33:21;94932.28;;;20.65;100.00
57801;BME280;43627;42.728;23.256;2023-07-22T02:35:48;94931.28;;;20.49;100.00
57801;BME280;43627;42.728;23.256;2023-07-22T02:38:15;94929.16;;;20.56;100.00
57801;BME280;43627;42.728;23.256;2023-07-22T02:40:42;94928.22;;;20.53;100.00
57801;BME280;43627;42.728;23.256;2023-07-22T02:43:09;94911.00;;;20.41;100.00
57801;BME280;43627;42.728;23.256;2023-07-22T02:45:36;94920.03;;;20.61;100.00
57801;BME280;43627;42.728;23.256;2023-07-22T02:48:03;94919.59;;;20.57;100.00
57801;BME280;43627;42.728;23.256;2023-07-22T02:50:30;94929.41;;;20.58;100.00
57801;BME280;43627;42.728;23.256;2023-07-22T02:52:57;94932.81;;;20.64;100.00
57801;BME280;43627;42.728;23.256;2023-07-22T02:55:24;94928.75;;;20.65;100.00
57801;BME280;43627;42.728;23.256;2023-07-22T02:57:51;94935.38;;;20.75;100.00
57801;BME280;43627;42.728;23.256;2023-07-22T03:00:18;94933.06;;;20.79;100.00
57801;BME280;43627;42.728;23.256;2023-07-22T03:02:53;94925.50;;;20.79;100.00
57801;BME280;43627;42.728;23.256;2023-07-22T03:05:20;94932.00;;;20.82;100.00
57801;BME280;43627;42.728;23.256;2023-07-22T03:07:47;94929.97;;;20.69;100.00
57801;BME280;43627;42.728;23.256;2023-07-22T03:10:14;94930.38;;;20.60;100.00
57801;BME280;43627;42.728;23.256;2023-07-22T03:12:41;94926.84;;;20.60;100.00
57801;BME280;43627;42.728;23.256;2023-07-22T03:15:08;94942.19;;;20.61;100.00
57801;BME280;43627;42.728;23.256;2023-07-22T03:17:36;94925.56;;;20.61;100.00
57801;BME280;43627;42.728;23.256;2023-07-22T03:20:04;94944.38;;;20.81;100.00
57801;BME280;43627;42.728;23.256;2023-07-22T03:22:41;94941.16;;;20.77;100.00
57801;BME280;43627;42.728;23.256;2023-07-22T03:25:11;94930.72;;;20.83;100.00
57801;BME280;43627;42.728;23.256;2023-07-22T03:27:39;94935.38;;;20.75;100.00
57801;BME280;43627;42.728;23.256;2023-07-22T03:30:07;94954.03;;;20.74;100.00
57801;BME280;43627;42.728;23.256;2023-07-22T03:32:37;94953.34;;;20.87;100.00
57801;BME280;43627;42.728;23.256;2023-07-22T03:35:04;94961.72;;;20.81;100.00
57801;BME280;43627;42.728;23.256;2023-07-22T03:37:31;94957.34;;;20.73;100.00
57801;BME280;43627;42.728;23.256;2023-07-22T03:39:58;94954.69;;;20.80;100.00
57801;BME280;43627;42.728;23.256;2023-07-22T03:42:25;94967.25;;;20.68;100.00
57801;BME280;43627;42.728;23.256;2023-07-22T03:44:51;94951.25;;;20.61;100.00
57801;BME280;43627;42.728;23.256;2023-07-22T03:47:19;94959.72;;;20.82;100.00
57801;BME280;43627;42.728;23.256;2023-07-22T03:49:46;94959.09;;;21.02;100.00
57801;BME280;43627;42.728;23.256;2023-07-22T03:52:12;94955.31;;;21.32;100.00
57801;BME280;43627;42.728;23.256;2023-07-22T03:54:40;94970.47;;;21.71;100.00
57801;BME280;43627;42.728;23.256;2023-07-22T03:57:07;94973.06;;;22.03;100.00
57801;BME280;43627;42.728;23.256;2023-07-22T03:59:34;94975.00;;;22.42;100.00
57801;BME280;43627;42.728;23.256;2023-07-22T04:02:01;94980.34;;;22.95;95.40
57801;BME280;43627;42.728;23.256;2023-07-22T04:04:28;94983.91;;;23.24;90.02
57801;BME280;43627;42.728;23.256;2023-07-22T04:06:55;94985.34;;;23.46;87.31
57801;BME280;43627;42.728;23.256;2023-07-22T04:09:22;94980.94;;;23.29;88.60
57801;BME280;43627;42.728;23.256;2023-07-22T04:11:49;94970.13;;;23.18;89.64
57801;BME280;43627;42.728;23.256;2023-07-22T04:14:15;94980.13;;;22.93;91.64
57801;BME280;43627;42.728;23.256;2023-07-22T04:16:42;94976.00;;;22.86;93.42
57801;BME280;43627;42.728;23.256;2023-07-22T04:19:09;94981.03;;;22.88;92.82
57801;BME280;43627;42.728;23.256;2023-07-22T04:21:35;94965.44;;;22.85;94.68
57801;BME280;43627;42.728;23.256;2023-07-22T04:24:02;94986.16;;;22.84;94.36
57801;BME280;43627;42.728;23.256;2023-07-22T04:26:29;94986.16;;;23.04;92.53
57801;BME280;43627;42.728;23.256;2023-07-22T04:28:55;94988.88;;;22.97;93.20
57801;BME280;43627;42.728;23.256;2023-07-22T04:31:22;94988.66;;;23.44;90.20
57801;BME280;43627;42.728;23.256;2023-07-22T04:33:49;94997.13;;;23.88;86.60
57801;BME280;43627;42.728;23.256;2023-07-22T04:36:16;94995.56;;;24.23;83.70
57801;BME280;43627;42.728;23.256;2023-07-22T04:38:43;95001.31;;;24.76;79.50
57801;BME280;43627;42.728;23.256;2023-07-22T04:41:09;94991.31;;;25.34;72.46
57801;BME280;43627;42.728;23.256;2023-07-22T04:43:36;95003.75;;;25.56;69.08
57801;BME280;43627;42.728;23.256;2023-07-22T04:46:03;94998.84;;;25.95;67.26
57801;BME280;43627;42.728;23.256;2023-07-22T04:48:30;95002.22;;;26.34;66.11
57801;BME280;43627;42.728;23.256;2023-07-22T04:50:57;94998.31;;;26.44;63.32
57801;BME280;43627;42.728;23.256;2023-07-22T04:53:24;95005.03;;;26.74;63.08
57801;BME280;43627;42.728;23.256;2023-07-22T04:55:51;94997.38;;;26.99;60.09
57801;BME280;43627;42.728;23.256;2023-07-22T04:58:18;95005.22;;;27.26;59.25
57801;BME280;43627;42.728;23.256;2023-07-22T05:00:46;95020.84;;;27.54;57.95
57801;BME280;43627;42.728;23.256;2023-07-22T05:03:13;95023.97;;;27.83;56.85
57801;BME280;43627;42.728;23.256;2023-07-22T05:05:41;95013.00;;;27.95;57.07
57801;BME280;43627;42.728;23.256;2023-07-22T05:08:08;95016.63;;;28.39;55.29
57801;BME280;43627;42.728;23.256;2023-07-22T05:10:36;95018.84;;;28.41;55.27
57801;BME280;43627;42.728;23.256;2023-07-22T05:13:03;95023.22;;;28.17;56.99
57801;BME280;43627;42.728;23.256;2023-07-22T05:15:30;95020.09;;;28.13;57.23
57801;BME280;43627;42.728;23.256;2023-07-22T05:17:57;95022.41;;;28.24;56.07
57801;BME280;43627;42.728;23.256;2023-07-22T05:20:23;95018.59;;;28.12;58.00
57801;BME280;43627;42.728;23.256;2023-07-22T05:22:50;95004.06;;;28.23;56.84
57801;BME280;43627;42.728;23.256;2023-07-22T05:25:17;95028.50;;;28.48;57.50
57801;BME280;43627;42.728;23.256;2023-07-22T05:27:43;95019.09;;;28.53;55.26
57801;BME280;43627;42.728;23.256;2023-07-22T05:30:10;95029.44;;;28.60;56.46
57801;BME280;43627;42.728;23.256;2023-07-22T05:32:57;95032.03;;;28.48;55.38
57801;BME280;43627;42.728;23.256;2023-07-22T05:35:24;95030.97;;;28.26;57.23
57801;BME280;43627;42.728;23.256;2023-07-22T05:37:50;95040.06;;;28.61;55.70
57801;BME280;43627;42.728;23.256;2023-07-22T05:40:17;95036.66;;;28.80;54.09
57801;BME280;43627;42.728;23.256;2023-07-22T05:42:44;95040.78;;;28.79;55.53
57801;BME280;43627;42.728;23.256;2023-07-22T05:45:10;95033.50;;;28.93;54.96
57801;BME280;43627;42.728;23.256;2023-07-22T05:47:41;95012.28;;;29.00;54.62
57801;BME280;43627;42.728;23.256;2023-07-22T05:50:08;95009.34;;;28.81;55.06
57801;BME280;43627;42.728;23.256;2023-07-22T05:52:35;95025.69;;;29.28;53.38
57801;BME280;43627;42.728;23.256;2023-07-22T05:55:02;95028.28;;;29.17;53.34
57801;BME280;43627;42.728;23.256;2023-07-22T05:57:29;95013.53;;;28.89;55.46
57801;BME280;43627;42.728;23.256;2023-07-22T05:59:57;95039.09;;;28.66;55.49
57801;BME280;43627;42.728;23.256;2023-07-22T06:02:37;95033.84;;;28.18;60.11
57801;BME280;43627;42.728;23.256;2023-07-22T06:05:05;95028.09;;;27.99;60.03
57801;BME280;43627;42.728;23.256;2023-07-22T06:07:41;95037.63;;;28.13;60.69
57801;BME280;43627;42.728;23.256;2023-07-22T06:10:12;95066.09;;;27.93;61.20
57801;BME280;43627;42.728;23.256;2023-07-22T06:12:39;95039.44;;;27.42;62.89
57801;BME280;43627;42.728;23.256;2023-07-22T06:15:08;95060.59;;;27.10;65.45
57801;BME280;43627;42.728;23.256;2023-07-22T06:17:35;95057.38;;;27.14;68.26
57801;BME280;43627;42.728;23.256;2023-07-22T06:20:03;95067.31;;;27.07;69.17
57801;BME280;43627;42.728;23.256;2023-07-22T06:22:30;95062.66;;;27.02;72.16
57801;BME280;43627;42.728;23.256;2023-07-22T06:24:57;95047.69;;;27.15;68.86
57801;BME280;43627;42.728;23.256;2023-07-22T06:27:24;95064.66;;;27.84;66.06
57801;BME280;43627;42.728;23.256;2023-07-22T06:29:51;95059.81;;;28.19;63.66
57801;BME280;43627;42.728;23.256;2023-07-22T06:32:18;95067.31;;;28.51;60.62
57801;BME280;43627;42.728;23.256;2023-07-22T06:34:45;95075.84;;;28.88;58.10
57801;BME280;43627;42.728;23.256;2023-07-22T06:37:11;95076.44;;;28.69;57.14
57801;BME280;43627;42.728;23.256;2023-07-22T06:39:42;95081.19;;;28.32;59.01
57801;BME280;43627;42.728;23.256;2023-07-22T06:42:22;95074.09;;;27.96;63.18
57801;BME280;43627;42.728;23.256;2023-07-22T06:44:54;95055.59;;;27.76;62.12
57801;BME280;43627;42.728;23.256;2023-07-22T06:47:22;95083.81;;;28.12;62.96
57801;BME280;43627;42.728;23.256;2023-07-22T06:49:49;95079.13;;;27.98;63.42
57801;BME280;43627;42.728;23.256;2023-07-22T06:52:17;95054.66;;;26.98;69.76
57801;BME280;43627;42.728;23.256;2023-07-22T06:54:45;95058.81;;;27.22;68.72
57801;BME280;43627;42.728;23.256;2023-07-22T06:57:15;95040.66;;;27.31;70.35
57801;BME280;43627;42.728;23.256;2023-07-22T06:59:43;95048.31;;;27.30;67.83
57801;BME280;43627;42.728;23.256;2023-07-22T07:02:10;95050.53;;;27.32;68.72
57801;BME280;43627;42.728;23.256;2023-07-22T07:04:37;95058.69;;;27.63;66.67
57801;BME280;43627;42.728;23.256;2023-07-22T07:07:07;95003.28;;;27.36;66.65
57801;BME280;43627;42.728;23.256;2023-07-22T07:09:35;95058.75;;;27.97;66.55
57801;BME280;43627;42.728;23.256;2023-07-22T07:12:02;95055.97;;;28.14;63.32
57801;BME280;43627;42.728;23.256;2023-07-22T07:14:35;95004.84;;;27.89;62.54
57801;BME280;43627;42.728;23.256;2023-07-22T07:17:02;95055.38;;;28.16;62.62
57801;BME280;43627;42.728;23.256;2023-07-22T07:19:29;95037.34;;;28.44;62.05
57801;BME280;43627;42.728;23.256;2023-07-22T07:22:00;95041.53;;;28.53;61.41
57801;BME280;43627;42.728;23.256;2023-07-22T07:24:27;95061.09;;;28.70;61.99
57801;BME280;43627;42.728;23.256;2023-07-22T07:26:55;95017.50;;;28.42;59.05
57801;BME280;43627;42.728;23.256;2023-07-22T07:29:28;95050.91;;;28.65;59.41
57801;BME280;43627;42.728;23.256;2023-07-22T07:32:18;95048.84;;;28.65;59.32
57801;BME280;43627;42.728;23.256;2023-07-22T07:34:45;95046.66;;;28.73;58.45
57801;BME280;43627;42.728;23.256;2023-07-22T07:37:13;95004.44;;;28.71;57.63
57801;BME280;43627;42.728;23.256;2023-07-22T07:39:40;95043.69;;;29.25;57.10
57801;BME280;43627;42.728;23.256;2023-07-22T07:42:07;95039.22;;;29.13;56.60
57801;BME280;43627;42.728;23.256;2023-07-22T07:44:34;95029.84;;;29.00;55.91
57801;BME280;43627;42.728;23.256;2023-07-22T07:47:02;95013.94;;;28.86;56.22
57801;BME280;43627;42.728;23.256;2023-07-22T07:49:29;95007.34;;;28.91;57.03
57801;BME280;43627;42.728;23.256;2023-07-22T07:51:59;95011.13;;;29.13;55.72
57801;BME280;43627;42.728;23.256;2023-07-22T07:57:28;95007.31;;;28.37;62.27
57801;BME280;43627;42.728;23.256;2023-07-22T07:59:56;95029.22;;;28.92;59.53
57801;BME280;43627;42.728;23.256;2023-07-22T08:02:27;95027.56;;;29.63;57.22
57801;BME280;43627;42.728;23.256;2023-07-22T08:04:57;95010.47;;;29.97;54.52
57801;BME280;43627;42.728;23.256;2023-07-22T08:07:23;94977.16;;;29.74;53.03
57801;BME280;43627;42.728;23.256;2023-07-22T08:09:51;95019.22;;;30.21;52.13
57801;BME280;43627;42.728;23.256;2023-07-22T08:12:19;95035.31;;;30.49;50.36
57801;BME280;43627;42.728;23.256;2023-07-22T08:15:01;95036.47;;;30.85;49.16
57801;BME280;43627;42.728;23.256;2023-07-22T08:17:40;95013.09;;;30.82;48.69
57801;BME280;43627;42.728;23.256;2023-07-22T08:20:14;95018.47;;;31.09;47.62
57801;BME280;43627;42.728;23.256;2023-07-22T08:22:47;94983.84;;;31.38;46.78
57801;BME280;43627;42.728;23.256;2023-07-22T08:44:53;94954.69;;;31.23;47.65
57801;BME280;43627;42.728;23.256;2023-07-22T08:47:27;94986.44;;;31.98;46.43
57801;BME280;43627;42.728;23.256;2023-07-22T09:03:49;94974.91;;;32.27;44.48
57801;BME280;43627;42.728;23.256;2023-07-22T09:06:20;94969.75;;;32.02;46.03
57801;BME280;43627;42.728;23.256;2023-07-22T09:08:47;94968.84;;;31.66;45.69
57801;BME280;43627;42.728;23.256;2023-07-22T09:11:16;94910.16;;;31.74;45.71
57801;BME280;43627;42.728;23.256;2023-07-22T09:13:46;94966.84;;;32.33;44.77
57801;BME280;43627;42.728;23.256;2023-07-22T09:16:15;94956.75;;;32.63;44.14
57801;BME280;43627;42.728;23.256;2023-07-22T09:18:47;94936.34;;;32.53;43.66
57801;BME280;43627;42.728;23.256;2023-07-22T09:21:15;94952.44;;;32.62;42.57
57801;BME280;43627;42.728;23.256;2023-07-22T09:23:43;94949.41;;;32.70;43.12
57801;BME280;43627;42.728;23.256;2023-07-22T09:26:15;94937.50;;;32.71;42.53
57801;BME280;43627;42.728;23.256;2023-07-22T09:28:51;94964.88;;;32.80;42.48
57801;BME280;43627;42.728;23.256;2023-07-22T09:31:24;94968.13;;;32.42;44.31
57801;BME280;43627;42.728;23.256;2023-07-22T09:33:53;94917.50;;;32.22;45.39
57801;BME280;43627;42.728;23.256;2023-07-22T09:36:21;94922.38;;;32.55;43.64
57801;BME280;43627;42.728;23.256;2023-07-22T09:39:01;94914.81;;;32.92;42.80
57801;BME280;43627;42.728;23.256;2023-07-22T09:41:33;94927.81;;;33.21;42.82
57801;BME280;43627;42.728;23.256;2023-07-22T09:44:03;94880.66;;;33.12;41.90
57801;BME280;43627;42.728;23.256;2023-07-22T09:46:37;94943.88;;;33.53;41.19
57801;BME280;43627;42.728;23.256;2023-07-22T09:49:28;94931.09;;;33.52;41.28
57801;BME280;43627;42.728;23.256;2023-07-22T09:52:09;94934.44;;;33.49;39.97
57801;BME280;43627;42.728;23.256;2023-07-22T09:54:48;94933.81;;;33.50;41.06
57801;BME280;43627;42.728;23.256;2023-07-22T09:57:20;94878.81;;;33.05;38.48
57801;BME280;43627;42.728;23.256;2023-07-22T09:59:51;94929.78;;;33.18;39.99
57801;BME280;43627;42.728;23.256;2023-07-22T10:02:22;94931.03;;;33.39;40.44
57801;BME280;43627;42.728;23.256;2023-07-22T10:04:52;94896.50;;;33.17;36.92
57801;BME280;43627;42.728;23.256;2023-07-22T10:07:20;94918.25;;;33.38;38.14
57801;BME280;43627;42.728;23.256;2023-07-22T10:09:54;94927.47;;;33.38;37.87
57801;BME280;43627;42.728;23.256;2023-07-22T10:12:23;94870.47;;;33.07;37.01
57801;BME280;43627;42.728;23.256;2023-07-22T10:14:51;94922.00;;;33.54;35.98
57801;BME280;43627;42.728;23.256;2023-07-22T10:17:22;94935.84;;;33.85;36.22
57801;BME280;43627;42.728;23.256;2023-07-22T10:19:50;94892.94;;;33.77;36.64
57801;BME280;43627;42.728;23.256;2023-07-22T10:22:18;94900.63;;;34.25;36.19
57801;BME280;43627;42.728;23.256;2023-07-22T10:24:52;94885.00;;;33.99;36.95
57801;BME280;43627;42.728;23.256;2023-07-22T10:27:21;94867.56;;;34.16;36.44
57801;BME280;43627;42.728;23.256;2023-07-22T10:29:57;94909.06;;;34.76;35.51
57801;BME280;43627;42.728;23.256;2023-07-22T10:32:25;94901.25;;;34.88;36.88
57801;BME280;43627;42.728;23.256;2023-07-22T10:35:07;94915.50;;;35.04;34.26
57801;BME280;43627;42.728;23.256;2023-07-22T10:37:40;94854.44;;;34.34;33.75
57801;BME280;43627;42.728;23.256;2023-07-22T10:40:28;94909.03;;;34.62;33.60
57801;BME280;43627;42.728;23.256;2023-07-22T10:43:03;94904.63;;;34.34;33.29
57801;BME280;43627;42.728;23.256;2023-07-22T10:45:33;94908.47;;;34.27;33.44
57801;BME280;43627;42.728;23.256;2023-07-22T10:48:03;94845.19;;;34.34;33.16
57801;BME280;43627;42.728;23.256;2023-07-22T10:51:05;94860.16;;;34.62;33.52
57801;BME280;43627;42.728;23.256;2023-07-22T10:53:57;94890.16;;;34.67;33.75
57801;BME280;43627;42.728;23.256;2023-07-22T10:56:31;94847.91;;;33.93;33.81
57801;BME280;43627;42.728;23.256;2023-07-22T10:59:13;94855.34;;;34.25;33.63
57801;BME280;43627;42.728;23.256;2023-07-22T11:01:43;94882.84;;;34.36;32.45
57801;BME280;43627;42.728;23.256;2023-07-22T11:04:28;94892.63;;;34.47;33.31
57801;BME280;43627;42.728;23.256;2023-07-22T11:07:30;94887.66;;;34.59;33.53
57801;BME280;43627;42.728;23.256;2023-07-22T11:10:14;94885.13;;;34.52;33.01
57801;BME280;43627;42.728;23.256;2023-07-22T11:12:44;94886.72;;;34.82;33.35
57801;BME280;43627;42.728;23.256;2023-07-22T11:15:17;94871.94;;;34.84;32.50
57801;BME280;43627;42.728;23.256;2023-07-22T11:17:48;94855.97;;;34.24;33.62
57801;BME280;43627;42.728;23.256;2023-07-22T11:20:17;94870.94;;;34.13;33.81
57801;BME280;43627;42.728;23.256;2023-07-22T11:22:44;94846.50;;;34.19;33.78
57801;BME280;43627;42.728;23.256;2023-07-22T11:25:17;94885.06;;;34.13;33.82
57801;BME280;43627;42.728;23.256;2023-07-22T11:27:45;94870.94;;;33.75;34.55
57801;BME280;43627;42.728;23.256;2023-07-22T11:30:13;94887.72;;;34.22;34.26
57801;BME280;43627;42.728;23.256;2023-07-22T11:32:43;94870.97;;;34.65;33.58
57801;BME280;43627;42.728;23.256;2023-07-22T11:35:18;94822.53;;;34.59;33.72
57801;BME280;43627;42.728;23.256;2023-07-22T11:37:47;94868.88;;;34.27;34.38
57801;BME280;43627;42.728;23.256;2023-07-22T11:40:19;94848.56;;;34.05;34.55
57801;BME280;43627;42.728;23.256;2023-07-22T11:42:46;94856.41;;;33.81;34.84
57801;BME280;43627;42.728;23.256;2023-07-22T11:45:15;94870.03;;;34.35;35.31
57801;BME280;43627;42.728;23.256;2023-07-22T11:47:45;94820.31;;;34.72;35.53
57801;BME280;43627;42.728;23.256;2023-07-22T11:50:13;94835.34;;;35.02;34.14
57801;BME280;43627;42.728;23.256;2023-07-22T11:52:51;94818.13;;;34.84;34.42
57801;BME280;43627;42.728;23.256;2023-07-22T11:55:29;94841.09;;;34.62;34.14
57801;BME280;43627;42.728;23.256;2023-07-22T11:58:04;94864.13;;;34.43;34.75
57801;BME280;43627;42.728;23.256;2023-07-22T12:00:37;94864.03;;;34.29;34.69
57801;BME280;43627;42.728;23.256;2023-07-22T12:03:16;94851.97;;;34.41;33.67
57801;BME280;43627;42.728;23.256;2023-07-22T12:05:47;94782.72;;;34.30;33.04
57801;BME280;43627;42.728;23.256;2023-07-22T12:08:17;94860.63;;;35.11;33.14
57801;BME280;43627;42.728;23.256;2023-07-22T12:10:56;94820.03;;;34.93;33.05
57801;BME280;43627;42.728;23.256;2023-07-22T12:13:27;94820.75;;;34.80;33.16
57801;BME280;43627;42.728;23.256;2023-07-22T12:16:03;94849.72;;;34.92;32.00
57801;BME280;43627;42.728;23.256;2023-07-22T12:18:44;94848.75;;;35.56;32.09
57801;BME280;43627;42.728;23.256;2023-07-22T12:21:14;94771.88;;;35.50;31.10
57801;BME280;43627;42.728;23.256;2023-07-22T12:23:43;94809.09;;;36.01;30.83
57801;BME280;43627;42.728;23.256;2023-07-22T12:26:12;94825.38;;;36.46;30.73
57801;BME280;43627;42.728;23.256;2023-07-22T12:28:39;94830.91;;;36.28;32.21
57801;BME280;43627;42.728;23.256;2023-07-22T12:31:09;94828.56;;;36.39;30.42
57801;BME280;43627;42.728;23.256;2023-07-22T12:33:37;94833.06;;;36.44;31.19
57801;BME280;43627;42.728;23.256;2023-07-22T12:36:07;94832.59;;;35.88;31.11
57801;BME280;43627;42.728;23.256;2023-07-22T12:38:40;94796.06;;;35.24;31.92
57801;BME280;43627;42.728;23.256;2023-07-22T12:41:11;94787.38;;;35.63;33.10
57801;BME280;43627;42.728;23.256;2023-07-22T12:46:06;94814.59;;;36.13;31.19
57801;BME280;43627;42.728;23.256;2023-07-22T12:48:33;94760.59;;;35.82;31.31
57801;BME280;43627;42.728;23.256;2023-07-22T12:51:16;94769.88;;;35.82;30.30
57801;BME280;43627;42.728;23.256;2023-07-22T12:53:49;94730.44;;;35.88;31.54
57801;BME280;43627;42.728;23.256;2023-07-22T12:56:19;94808.53;;;36.50;30.66
57801;BME280;43627;42.728;23.256;2023-07-22T12:58:50;94788.72;;;36.68;30.59
57801;BME280;43627;42.728;23.256;2023-07-22T13:01:19;94757.34;;;36.82;29.64
57801;BME280;43627;42.728;23.256;2023-07-22T13:06:16;94804.28;;;36.99;28.99
57801;BME280;43627;42.728;23.256;2023-07-22T13:08:47;94802.00;;;37.29;28.35
57801;BME280;43627;42.728;23.256;2023-07-22T13:11:18;94768.56;;;36.62;28.27
57801;BME280;43627;42.728;23.256;2023-07-22T13:13:48;94728.06;;;35.98;29.40
57801;BME280;43627;42.728;23.256;2023-07-22T13:16:16;94766.97;;;35.96;28.61
57801;BME280;43627;42.728;23.256;2023-07-22T13:18:48;94712.31;;;35.20;29.41
57801;BME280;43627;42.728;23.256;2023-07-22T13:21:19;94794.47;;;35.77;30.32
57801;BME280;43627;42.728;23.256;2023-07-22T13:24:03;94745.50;;;35.77;30.10
57801;BME280;43627;42.728;23.256;2023-07-22T13:26:34;94705.09;;;35.17;30.66
57801;BME280;43627;42.728;23.256;2023-07-22T13:32:11;94794.97;;;35.58;31.18
57801;BME280;43627;42.728;23.256;2023-07-22T13:51:17;94770.59;;;34.82;32.00
57801;BME280;43627;42.728;23.256;2023-07-22T13:53:44;94719.34;;;34.62;31.98
57801;BME280;43627;42.728;23.256;2023-07-22T13:56:13;94758.53;;;34.96;31.40
57801;BME280;43627;42.728;23.256;2023-07-22T13:58:41;94726.03;;;34.69;31.62
57801;BME280;43627;42.728;23.256;2023-07-22T14:01:08;94682.06;;;34.68;30.88